createdAt,value
2022-08-07T00:00:26.166Z,66.58
2022-08-07T00:02:53.647Z,67.60
2022-08-07T00:05:23.627Z,67.61
2022-08-07T00:07:59.756Z,67.47
2022-08-07T00:10:30.430Z,67.03
2022-08-07T00:13:17.372Z,67.08
2022-08-07T00:15:52.435Z,66.56
2022-08-07T00:18:23.838Z,66.64
2022-08-07T00:21:02.034Z,66.28
2022-08-07T00:23:32.514Z,66.32
2022-08-07T00:26:06.905Z,66.46
2022-08-07T00:28:55.600Z,66.59
2022-08-07T00:31:37.171Z,67.24
2022-08-07T00:34:08.773Z,67.54
2022-08-07T00:36:42.599Z,67.67
2022-08-07T00:39:16.644Z,67.73
2022-08-07T00:42:02.211Z,67.77
2022-08-07T00:44:38.389Z,67.73
2022-08-07T00:47:15.852Z,67.93
2022-08-07T00:50:19.278Z,68.60
2022-08-07T00:52:43.284Z,69.40
2022-08-07T00:55:17.471Z,70.14
2022-08-07T00:57:56.017Z,69.93
2022-08-07T01:00:23.948Z,70.71
2022-08-07T01:02:52.419Z,70.80
2022-08-07T01:05:20.965Z,70.39
2022-08-07T01:07:51.959Z,70.90
2022-08-07T01:10:20.061Z,71.00
2022-08-07T01:12:54.004Z,70.48
2022-08-07T01:16:00.696Z,71.09
2022-08-07T01:18:17.460Z,71.19
2022-08-07T01:20:59.293Z,71.57
2022-08-07T01:23:38.466Z,72.13
2022-08-07T01:26:13.253Z,73.23
2022-08-07T01:28:48.305Z,73.43
2022-08-07T01:31:21.355Z,73.35
2022-08-07T01:33:55.625Z,73.55
2022-08-07T01:36:33.273Z,73.32
2022-08-07T01:39:09.852Z,72.97
2022-08-07T01:41:55.214Z,73.03
2022-08-07T01:44:32.621Z,73.57
2022-08-07T01:48:16.458Z,72.97
2022-08-07T01:49:54.689Z,72.31
2022-08-07T01:52:26.769Z,72.75
2022-08-07T01:54:56.514Z,72.54
2022-08-07T01:58:06.921Z,73.15
2022-08-07T02:00:28.714Z,73.30
2022-08-07T02:03:21.738Z,72.67
2022-08-07T02:06:02.287Z,72.47
2022-08-07T02:08:42.383Z,71.75
2022-08-07T02:11:11.549Z,71.77
2022-08-07T02:14:02.650Z,71.75
2022-08-07T02:16:33.696Z,71.56
2022-08-07T02:20:05.818Z,70.75
2022-08-07T02:21:59.717Z,70.37
2022-08-07T02:24:30.030Z,68.00
2022-08-07T02:27:01.499Z,66.38
2022-08-07T02:29:32.888Z,65.49
2022-08-07T02:32:05.549Z,64.71
2022-08-07T02:34:34.179Z,63.39
2022-08-07T02:37:08.260Z,63.58
2022-08-07T02:39:43.838Z,63.52
2022-08-07T02:42:33.796Z,63.22
2022-08-07T02:45:57.669Z,64.14
2022-08-07T02:47:52.162Z,61.96
2022-08-07T02:50:20.059Z,63.20
2022-08-07T02:53:06.299Z,64.74
2022-08-07T02:56:04.225Z,65.54
2022-08-07T02:58:29.268Z,64.57
2022-08-07T03:01:03.276Z,65.23
2022-08-07T03:03:49.005Z,65.79
2022-08-07T03:06:25.869Z,65.47
2022-08-07T03:09:04.782Z,65.55
2022-08-07T03:11:38.626Z,64.32
2022-08-07T03:14:09.388Z,63.68
2022-08-07T03:16:38.968Z,65.02
2022-08-07T03:19:10.147Z,66.37
2022-08-07T03:21:38.012Z,65.92
2022-08-07T03:24:19.560Z,65.81
2022-08-07T03:27:00.367Z,67.01
2022-08-07T03:29:44.625Z,65.60
2022-08-07T03:32:23.128Z,65.36
2022-08-07T03:35:00.967Z,66.02
2022-08-07T03:37:53.299Z,65.53
2022-08-07T03:40:27.440Z,65.35
2022-08-07T03:43:00.685Z,65.28
2022-08-07T03:45:31.407Z,64.41
2022-08-07T03:48:10.072Z,66.08
2022-08-07T03:50:39.356Z,65.36
2022-08-07T03:53:11.482Z,65.86
2022-08-07T03:55:52.932Z,65.03
2022-08-07T03:59:05.370Z,64.87
2022-08-07T04:01:15.687Z,64.78
2022-08-07T04:03:49.749Z,63.89
2022-08-07T04:06:37.615Z,63.43
2022-08-07T04:09:15.461Z,63.57
2022-08-07T04:12:24.114Z,63.67
2022-08-07T04:14:38.790Z,64.30
2022-08-07T04:17:20.223Z,63.43
2022-08-07T04:19:51.995Z,64.12
2022-08-07T04:22:27.564Z,63.20
2022-08-07T04:25:01.961Z,62.47
2022-08-07T04:27:35.580Z,63.35
2022-08-07T04:30:13.419Z,63.43
2022-08-07T04:33:01.008Z,63.57
2022-08-07T04:35:39.157Z,61.96
2022-08-07T04:38:13.482Z,62.97
2022-08-07T04:40:52.273Z,61.89
2022-08-07T04:44:12.308Z,61.80
2022-08-07T04:46:59.731Z,61.86
2022-08-07T04:49:28.409Z,61.89
2022-08-07T04:52:26.506Z,61.28
2022-08-07T04:55:15.273Z,61.14
2022-08-07T04:58:27.498Z,61.10
2022-08-07T05:00:59.446Z,59.89
2022-08-07T05:04:06.440Z,61.24
2022-08-07T05:06:51.653Z,61.33
2022-08-07T05:09:46.157Z,60.88
2022-08-07T05:12:27.055Z,60.52
2022-08-07T05:15:23.181Z,60.65
2022-08-07T05:18:00.440Z,61.02
2022-08-07T05:20:40.944Z,59.94
2022-08-07T05:23:17.095Z,60.73
2022-08-07T05:26:11.524Z,60.47
2022-08-07T05:28:40.595Z,60.02
2022-08-07T05:31:13.019Z,59.56
2022-08-07T05:33:51.201Z,58.41
2022-08-07T05:36:35.365Z,59.40
2022-08-07T05:39:08.949Z,59.41
2022-08-07T05:42:02.583Z,59.34
2022-08-07T05:44:35.420Z,58.11
2022-08-07T05:47:18.406Z,58.71
2022-08-07T05:49:53.439Z,58.10
2022-08-07T05:52:30.054Z,57.34
2022-08-07T05:55:07.274Z,57.20
2022-08-07T05:57:42.289Z,56.82
2022-08-07T06:00:15.924Z,56.94
2022-08-07T06:02:55.765Z,56.44
2022-08-07T06:05:28.274Z,56.04
2022-08-07T06:08:30.358Z,55.39
2022-08-07T06:10:51.371Z,56.43
2022-08-07T06:13:20.866Z,53.95
2022-08-07T06:16:10.211Z,53.46
2022-08-07T06:18:43.063Z,52.70
2022-08-07T06:22:15.814Z,53.76
2022-08-07T06:24:38.006Z,54.10
2022-08-07T06:26:46.398Z,52.93
2022-08-07T06:29:14.756Z,50.65
2022-08-07T06:31:49.450Z,51.62
2022-08-07T06:34:28.058Z,51.80
2022-08-07T06:36:57.669Z,51.06
2022-08-07T06:40:15.952Z,51.19
2022-08-07T06:42:34.903Z,51.29
2022-08-07T06:45:18.124Z,51.69
2022-08-07T06:47:58.522Z,52.03
2022-08-07T06:50:33.352Z,51.24
2022-08-07T06:53:06.129Z,51.69
2022-08-07T06:56:00.844Z,51.51
2022-08-07T06:58:32.212Z,50.99
2022-08-07T07:01:11.202Z,49.55
2022-08-07T07:03:49.294Z,48.70
2022-08-07T07:06:26.351Z,46.81
2022-08-07T07:08:55.358Z,45.38
2022-08-07T07:12:09.713Z,47.78
2022-08-07T07:14:14.353Z,47.88
2022-08-07T07:16:49.905Z,49.01
2022-08-07T07:19:57.119Z,49.09
2022-08-07T07:22:36.008Z,48.83
2022-08-07T07:26:33.329Z,48.61
2022-08-07T07:28:07.611Z,45.93
2022-08-07T07:31:02.252Z,44.62
2022-08-07T07:33:32.740Z,43.11
2022-08-07T07:36:05.377Z,42.63
2022-08-07T07:38:34.790Z,43.12
2022-08-07T07:41:04.623Z,42.77
2022-08-07T07:43:48.146Z,42.06
2022-08-07T07:46:36.709Z,42.64
2022-08-07T07:50:33.222Z,41.60
2022-08-07T07:52:13.060Z,41.89
2022-08-07T07:54:50.503Z,42.06
2022-08-07T07:57:29.035Z,42.37
2022-08-07T08:00:20.852Z,42.24
2022-08-07T08:03:06.093Z,42.44
2022-08-07T08:05:51.096Z,42.82
2022-08-07T08:08:35.959Z,42.42
2022-08-07T08:11:08.685Z,42.19
2022-08-07T08:13:52.988Z,41.56
2022-08-07T08:16:30.073Z,42.15
2022-08-07T08:19:18.151Z,42.42
2022-08-07T08:22:09.782Z,40.94
2022-08-07T08:25:18.691Z,40.84
2022-08-07T08:27:56.714Z,41.60
2022-08-07T08:30:27.825Z,41.61
2022-08-07T08:32:58.631Z,41.93
2022-08-07T08:35:28.792Z,42.81
2022-08-07T08:38:03.441Z,43.57
2022-08-07T08:40:37.681Z,42.20
2022-08-07T08:43:50.504Z,42.21
2022-08-07T08:46:38.151Z,42.54
2022-08-07T08:49:33.445Z,42.50
2022-08-07T08:52:22.392Z,41.58
2022-08-07T08:54:52.669Z,39.07
2022-08-07T08:57:37.782Z,40.04
2022-08-07T09:00:12.250Z,40.40
2022-08-07T09:02:39.359Z,40.17
2022-08-07T09:05:32.132Z,40.20
2022-08-07T09:08:28.550Z,41.20
2022-08-07T09:11:24.177Z,40.05
2022-08-07T09:14:07.358Z,40.80
2022-08-07T09:16:45.702Z,42.17
2022-08-07T09:19:51.000Z,40.57
2022-08-07T09:24:31.521Z,40.94
2022-08-07T09:25:54.880Z,41.06
2022-08-07T09:30:04.319Z,40.64
2022-08-07T09:31:54.721Z,42.62
2022-08-07T09:34:53.888Z,42.20
2022-08-07T09:37:48.335Z,42.43
2022-08-07T09:40:28.699Z,43.15
2022-08-07T09:42:57.336Z,42.16
2022-08-07T09:47:25.643Z,42.67
2022-08-07T09:50:01.284Z,41.80
2022-08-07T09:52:34.057Z,41.11
2022-08-07T09:55:17.004Z,41.41
2022-08-07T09:58:09.994Z,41.35
2022-08-07T10:00:50.695Z,47.13
2022-08-07T10:04:14.301Z,55.19
2022-08-07T10:07:25.720Z,72.37
2022-08-07T10:10:02.456Z,98.21
2022-08-07T10:12:53.243Z,100.00
2022-08-07T10:15:44.999Z,100.00
2022-08-07T10:18:51.665Z,100.00
2022-08-07T10:22:14.604Z,100.00
2022-08-07T10:25:00.788Z,100.00
2022-08-07T10:27:57.197Z,100.00
2022-08-07T10:30:36.457Z,87.67
2022-08-07T10:34:06.877Z,93.11
2022-08-07T10:36:51.145Z,91.82
2022-08-07T10:39:41.183Z,91.07
2022-08-07T10:42:36.683Z,88.81
2022-08-07T10:45:16.742Z,87.71
2022-08-07T10:48:09.732Z,77.05
2022-08-07T10:50:50.003Z,81.54
2022-08-07T10:53:43.988Z,82.33
2022-08-07T10:56:43.941Z,79.53
2022-08-07T10:59:30.480Z,82.23
2022-08-07T11:02:12.396Z,76.80
2022-08-07T11:05:17.876Z,79.09
2022-08-07T11:07:59.237Z,80.55
2022-08-07T11:10:52.304Z,80.33
2022-08-07T11:14:45.608Z,79.69
2022-08-07T11:17:07.227Z,82.80
2022-08-07T11:19:55.432Z,82.22
2022-08-07T11:22:45.625Z,79.28
2022-08-07T11:25:25.979Z,79.52
2022-08-07T11:28:15.592Z,69.54
2022-08-07T11:30:50.920Z,79.94
2022-08-07T11:33:55.425Z,72.70
2022-08-07T11:36:30.605Z,65.67
2022-08-07T11:39:10.232Z,65.53
2022-08-07T11:42:29.625Z,67.39
2022-08-07T11:45:35.776Z,65.42
2022-08-07T11:48:26.750Z,56.87
2022-08-07T11:51:41.373Z,53.42
2022-08-07T11:54:26.988Z,61.21
2022-08-07T11:57:11.366Z,68.63
2022-08-07T12:00:11.107Z,56.70
2022-08-07T12:03:05.048Z,58.24
2022-08-07T12:06:39.087Z,54.84
2022-08-07T12:09:05.676Z,56.74
2022-08-07T12:12:10.281Z,58.82
2022-08-07T12:15:16.957Z,58.68
2022-08-07T12:18:08.285Z,60.08
2022-08-07T12:20:46.609Z,60.54
2022-08-07T12:24:04.903Z,59.90
2022-08-07T12:26:49.128Z,59.79
2022-08-07T12:29:20.384Z,60.21
2022-08-07T12:32:24.235Z,59.85
2022-08-07T12:34:56.262Z,60.22
2022-08-07T12:37:28.517Z,60.38
2022-08-07T12:40:46.721Z,60.13
2022-08-07T12:43:10.161Z,60.76
2022-08-07T12:45:43.320Z,60.12
2022-08-07T12:48:27.644Z,60.37
2022-08-07T12:51:17.250Z,61.38
2022-08-07T12:54:36.561Z,60.63
2022-08-07T12:57:09.455Z,60.78
2022-08-07T12:59:54.299Z,60.78
2022-08-07T13:02:28.810Z,61.78
2022-08-07T13:06:03.893Z,63.62
2022-08-07T13:08:18.437Z,65.25
2022-08-07T13:11:25.107Z,66.23
2022-08-07T13:14:24.557Z,66.84
2022-08-07T13:17:10.190Z,65.82
2022-08-07T13:19:55.942Z,64.09
2022-08-07T13:22:42.175Z,63.87
2022-08-07T13:25:28.693Z,64.33
2022-08-07T13:28:13.003Z,64.11
2022-08-07T13:30:52.373Z,63.38
2022-08-07T13:34:31.954Z,62.29
2022-08-07T13:36:51.391Z,64.34
2022-08-07T13:40:36.760Z,63.79
2022-08-07T13:42:39.873Z,63.44
2022-08-07T13:46:06.802Z,63.28
2022-08-07T13:48:05.577Z,64.10
2022-08-07T13:50:44.866Z,63.84
2022-08-07T13:53:35.898Z,64.14
2022-08-07T13:56:35.031Z,64.29
2022-08-07T13:59:05.819Z,63.41
2022-08-07T14:01:51.026Z,61.81
2022-08-07T14:04:29.746Z,62.55
2022-08-07T14:06:58.970Z,62.91
2022-08-07T14:10:01.279Z,62.94
2022-08-07T14:12:54.833Z,62.71
2022-08-07T14:15:36.086Z,63.35
2022-08-07T14:18:27.531Z,64.28
2022-08-07T14:21:11.657Z,63.94
2022-08-07T14:24:05.277Z,63.58
2022-08-07T14:26:40.614Z,63.62
2022-08-07T14:30:07.620Z,63.68
2022-08-07T14:32:12.273Z,63.84
2022-08-07T14:34:46.459Z,64.15
2022-08-07T14:37:17.762Z,63.49
2022-08-07T14:40:17.553Z,63.44
2022-08-07T14:43:55.143Z,63.07
2022-08-07T14:45:46.842Z,61.63
2022-08-07T14:48:21.227Z,62.61
2022-08-07T14:50:52.137Z,62.28
2022-08-07T14:54:03.783Z,61.77
2022-08-07T14:56:13.976Z,62.31
2022-08-07T14:58:52.510Z,61.51
2022-08-07T15:01:50.842Z,61.95
2022-08-07T15:04:21.914Z,61.45
2022-08-07T15:06:52.804Z,61.64
2022-08-07T15:09:57.264Z,60.75
2022-08-07T15:18:48.449Z,60.91
2022-08-07T15:21:58.395Z,61.78
2022-08-07T15:25:14.891Z,61.62
2022-08-07T15:27:23.756Z,61.35
2022-08-07T15:30:08.843Z,60.43
2022-08-07T15:33:01.501Z,60.86
2022-08-07T15:36:02.025Z,60.32
2022-08-07T15:38:58.543Z,59.75
2022-08-07T15:42:42.348Z,60.09
2022-08-07T15:44:19.272Z,61.21
2022-08-07T15:46:52.764Z,61.14
2022-08-07T15:50:05.612Z,61.63
2022-08-07T15:52:17.161Z,61.76
2022-08-07T15:54:49.648Z,61.85
2022-08-07T15:57:39.518Z,62.56
2022-08-07T16:00:09.269Z,62.61
2022-08-07T16:02:58.224Z,62.80
2022-08-07T16:05:31.345Z,62.71
2022-08-07T16:08:31.291Z,63.08
2022-08-07T16:11:26.965Z,62.83
2022-08-07T16:14:00.205Z,63.27
2022-08-07T16:16:57.649Z,63.30
2022-08-07T16:19:43.015Z,63.15
2022-08-07T16:22:58.074Z,63.16
2022-08-07T16:25:59.374Z,63.07
2022-08-07T16:30:07.300Z,62.92
2022-08-07T16:31:52.026Z,63.10
2022-08-07T16:34:48.338Z,62.89
2022-08-07T16:38:04.608Z,62.44
2022-08-07T16:40:23.384Z,62.94
2022-08-07T16:44:06.017Z,62.92
2022-08-07T16:47:04.567Z,62.82
2022-08-07T16:50:28.021Z,62.91
2022-08-07T16:52:51.894Z,62.66
2022-08-07T16:55:50.660Z,62.64
2022-08-07T16:59:10.163Z,62.40
2022-08-07T17:01:55.538Z,63.43
2022-08-07T17:04:57.543Z,63.22
2022-08-07T17:07:55.916Z,63.51
2022-08-07T17:10:54.313Z,63.38
2022-08-07T17:13:41.733Z,63.73
2022-08-07T17:16:40.143Z,63.57
2022-08-07T17:20:00.375Z,63.84
2022-08-07T17:22:16.417Z,64.27
2022-08-07T17:25:10.793Z,64.34
2022-08-07T17:27:51.664Z,64.59
2022-08-07T17:30:26.564Z,64.73
2022-08-07T17:34:08.819Z,63.86
2022-08-07T17:36:26.001Z,64.18
2022-08-07T17:39:19.596Z,64.40
2022-08-07T17:42:03.475Z,64.07
2022-08-07T17:44:46.913Z,64.18
2022-08-07T17:48:10.388Z,64.15
2022-08-07T17:50:54.245Z,64.11
2022-08-07T17:54:00.690Z,63.78
2022-08-07T17:56:29.866Z,64.59
2022-08-07T17:58:57.336Z,65.07
2022-08-07T18:01:45.643Z,64.35
2022-08-07T18:04:41.909Z,66.02
2022-08-07T18:07:20.747Z,64.72
2022-08-07T18:10:10.246Z,64.59
2022-08-07T18:13:23.282Z,64.67
2022-08-07T18:16:10.157Z,65.15
2022-08-07T18:21:06.939Z,64.99
2022-08-07T18:21:55.034Z,65.07
2022-08-07T18:24:35.639Z,64.68
2022-08-07T18:27:38.039Z,64.95
2022-08-07T18:30:31.085Z,64.82
2022-08-07T18:33:34.498Z,65.37
2022-08-07T18:36:05.994Z,66.70
2022-08-07T18:38:55.880Z,67.89
2022-08-07T18:42:12.967Z,66.51
2022-08-07T18:45:39.719Z,67.55
2022-08-07T18:48:02.974Z,66.74
2022-08-07T18:50:49.455Z,67.20
2022-08-07T18:53:39.700Z,67.69
2022-08-07T18:56:31.814Z,67.07
2022-08-07T18:59:46.790Z,67.68
2022-08-07T19:02:31.659Z,66.13
2022-08-07T19:05:15.474Z,66.25
2022-08-07T19:07:51.825Z,66.26
2022-08-07T19:10:51.240Z,66.33
2022-08-07T19:14:00.206Z,66.36
2022-08-07T19:17:04.571Z,66.32
2022-08-07T19:20:01.401Z,66.80
2022-08-07T19:23:18.891Z,67.38
2022-08-07T19:26:21.907Z,67.90
2022-08-07T19:30:54.101Z,67.04
2022-08-07T19:31:59.661Z,66.76
2022-08-07T19:34:32.694Z,66.80
2022-08-07T19:37:10.050Z,67.14
2022-08-07T19:39:57.644Z,67.28
2022-08-07T19:42:39.926Z,67.94
2022-08-07T19:45:12.621Z,67.24
2022-08-07T19:47:59.894Z,67.30
2022-08-07T19:50:45.311Z,67.11
2022-08-07T19:54:29.853Z,69.46
2022-08-07T19:56:13.592Z,67.73
2022-08-07T19:58:55.202Z,67.67
2022-08-07T20:01:22.765Z,68.18
2022-08-07T20:04:11.126Z,68.92
2022-08-07T20:06:43.108Z,68.46
2022-08-07T20:09:46.432Z,70.30
2022-08-07T20:12:22.513Z,68.02
2022-08-07T20:14:53.954Z,68.57
2022-08-07T20:17:30.852Z,68.10
2022-08-07T20:19:59.155Z,68.42
2022-08-07T20:22:34.229Z,68.55
2022-08-07T20:25:19.863Z,68.64
2022-08-07T20:27:54.283Z,68.81
2022-08-07T20:30:33.973Z,68.86
2022-08-07T20:33:04.901Z,68.57
2022-08-07T20:35:51.736Z,68.38
2022-08-07T20:38:22.611Z,69.23
2022-08-07T20:40:53.487Z,69.30
2022-08-07T20:43:25.883Z,69.13
2022-08-07T20:46:25.697Z,68.91
2022-08-07T20:48:58.017Z,69.25
2022-08-07T20:51:36.006Z,69.00
2022-08-07T20:54:12.143Z,69.58
2022-08-07T20:56:46.100Z,70.38
2022-08-07T21:00:04.270Z,70.83
2022-08-07T21:02:35.214Z,72.87
2022-08-07T21:05:16.200Z,75.75
2022-08-07T21:07:49.651Z,78.84
2022-08-07T21:10:31.262Z,78.66
2022-08-07T21:13:00.831Z,79.03
2022-08-07T21:15:58.337Z,79.64
2022-08-07T21:18:29.389Z,81.53
2022-08-07T21:20:59.495Z,83.39
2022-08-07T21:23:49.519Z,84.75
2022-08-07T21:26:27.017Z,83.29
2022-08-07T21:29:03.456Z,85.26
2022-08-07T21:32:43.646Z,86.35
2022-08-07T21:34:52.856Z,87.07
2022-08-07T21:37:57.885Z,87.83
2022-08-07T21:40:39.152Z,88.58
2022-08-07T21:43:13.212Z,89.45
2022-08-07T21:46:08.512Z,90.24
2022-08-07T21:48:57.495Z,90.09
2022-08-07T21:51:27.837Z,89.03
2022-08-07T21:54:18.829Z,91.21
2022-08-07T21:57:11.106Z,89.19
2022-08-07T22:00:22.113Z,87.77
2022-08-07T22:03:05.720Z,88.46
2022-08-07T22:05:48.140Z,87.50
2022-08-07T22:08:20.997Z,88.43
2022-08-07T22:10:59.891Z,89.06
2022-08-07T22:13:50.415Z,89.60
2022-08-07T22:16:43.410Z,90.41
2022-08-07T22:19:29.380Z,90.66
2022-08-07T22:22:21.406Z,90.89
2022-08-07T22:25:08.525Z,90.81
2022-08-07T22:28:07.250Z,91.14
2022-08-07T22:30:36.081Z,91.48
2022-08-07T22:33:09.630Z,92.54
2022-08-07T22:35:57.668Z,94.46
2022-08-07T22:38:48.890Z,94.50
2022-08-07T22:42:03.031Z,92.75
2022-08-07T22:44:25.141Z,91.90
2022-08-07T22:47:16.931Z,91.98
2022-08-07T22:50:39.086Z,93.02
2022-08-07T22:54:08.866Z,94.93
2022-08-07T22:56:47.687Z,94.57
2022-08-07T22:59:49.824Z,93.95
2022-08-07T23:02:31.987Z,94.31
2022-08-07T23:06:14.967Z,93.69
2022-08-07T23:08:46.299Z,94.75
2022-08-07T23:11:45.882Z,94.72
2022-08-07T23:14:35.837Z,93.28
2022-08-07T23:17:21.389Z,94.45
2022-08-07T23:20:07.563Z,93.66
2022-08-07T23:23:11.986Z,93.32
2022-08-07T23:26:18.431Z,94.36
2022-08-07T23:29:16.658Z,94.52
2022-08-07T23:34:18.640Z,91.62
2022-08-07T23:35:00.826Z,92.35
2022-08-07T23:37:32.803Z,91.37
2022-08-07T23:40:24.778Z,90.57
2022-08-07T23:43:37.911Z,91.51
2022-08-07T23:46:11.548Z,90.96
2022-08-07T23:48:53.959Z,89.32
2022-08-07T23:53:05.899Z,90.41
2022-08-07T23:54:43.840Z,90.64
2022-08-07T23:57:55.259Z,90.30
